Fadime K — TCCT2 — position and weather

sailwx.info

Track history (hours):
 
Tides and Currents Weather Stations Pressure Air Temp Water Temp Dewpoint Dewpoint Depression Visibility Wind Speed Wind Dir Waves Ship Positions

Fadime K

Last reported at 2017-Oct-17 03:16 UTC. Time now 2017-Oct-17 11:51 UTC.
Position N 45°06' E 029°52'.

Length 72 m; draft 3.2 m.

Type: Cargo ship. MMSI: 271002318.

Date/timePositionNaut miles runAvg speedWind from/ knotsBaromVisibWave heightAir tempDewpointWater temp
2017-Oct-17 03:16N 45°06' E 029°52'1 4.6
2017-Oct-17 03:00N 45°05' E 029°53'54 8.3
2017-Oct-16 20:35N 44°14' E 029°31'110.0
2017-Oct-16 20:30N 44°13' E 029°30'1210.3
2017-Oct-16 19:20N 44°03' E 029°21'3 9.9
2017-Oct-16 19:00N 44°01' E 029°18'5 9.8
2017-Oct-16 18:30N 43°57' E 029°14'510.2
2017-Oct-16 18:00N 43°53' E 029°10'510.7
2017-Oct-16 17:30N 43°48' E 029°06'510.3
2017-Oct-16 17:00N 43°44' E 029°01'510.3
2017-Oct-16 16:30N 43°40' E 028°57'510.1
2017-Oct-16 16:00N 43°36' E 028°53'157 8.3
2017-Oct-15 21:10N 40°59' E 028°60'3 9.3
2017-Oct-15 20:52N 40°56' E 028°58'313 6.4
2017-Oct-13 19:57N 37°40' E 023°42'4 9.7
2017-Oct-13 19:30N 37°44' E 023°40'5 9.5
2017-Oct-13 19:00N 37°48' E 023°36'5 9.6
2017-Oct-13 18:30N 37°49' E 023°30'5 9.5
2017-Oct-13 18:00N 37°51' E 023°24'5 9.3
2017-Oct-13 17:30N 37°51' E 023°18'5 9.4
2017-Oct-13 17:00N 37°52' E 023°13'5 9.6
2017-Oct-13 16:30N 37°53' E 023°07'3 6.5
2017-Oct-13 16:00N 37°55' E 023°03'0 0.2
2017-Oct-13 15:30N 37°55' E 023°03'0 0.0
2017-Oct-13 15:00N 37°55' E 023°03'0 0.0
2017-Oct-13 14:30N 37°55' E 023°03'0 0.0
2017-Oct-13 14:00N 37°55' E 023°03'0 0.0
2017-Oct-13 13:30N 37°55' E 023°03'0 0.0
2017-Oct-13 13:00N 37°55' E 023°03'0 0.0
2017-Oct-13 12:30N 37°55' E 023°03'0 0.0
2017-Oct-13 12:00N 37°55' E 023°03'0 0.0
2017-Oct-13 11:30N 37°55' E 023°03'0 0.0
2017-Oct-13 11:00N 37°55' E 023°03'0 0.0
2017-Oct-13 10:30N 37°55' E 023°03'0 0.0
2017-Oct-13 10:00N 37°55' E 023°03'0 0.0
2017-Oct-13 09:30N 37°55' E 023°03'0 0.0
2017-Oct-13 09:00N 37°55' E 023°03'0 0.0
2017-Oct-13 08:30N 37°55' E 023°03'0 0.0
2017-Oct-13 08:00N 37°55' E 023°03'0 0.0
2017-Oct-13 07:30N 37°55' E 023°03'0 0.0
2017-Oct-13 07:00N 37°55' E 023°03'0 0.0
2017-Oct-13 06:30N 37°55' E 023°03'0 0.0
2017-Oct-13 06:00N 37°55' E 023°03'0 0.0
2017-Oct-13 05:30N 37°55' E 023°03'0 0.0
2017-Oct-13 05:00N 37°55' E 023°03'0 0.0
2017-Oct-13 04:30N 37°55' E 023°03'0 0.0
2017-Oct-13 04:00N 37°55' E 023°03'0 0.3
2017-Oct-13 03:30N 37°55' E 023°03'1 1.4
2017-Oct-13 03:00N 37°55' E 023°02'1 1.1
2017-Oct-13 02:30N 37°54' E 023°03'2 5.0
2017-Oct-13 02:00N 37°53' E 023°06'3 5.5
2017-Oct-13 01:30N 37°53' E 023°09'3 5.5
2017-Oct-13 01:00N 37°53' E 023°13'3 5.6
2017-Oct-13 00:30N 37°53' E 023°16'3 6.1
2017-Oct-13 00:00N 37°52' E 023°20'3 6.5
2017-Oct-12 23:30N 37°51' E 023°24'3 6.5
2017-Oct-12 23:00N 37°50' E 023°28'3 6.0
2017-Oct-12 22:30N 37°50' E 023°32'3 6.6
2017-Oct-12 22:00N 37°50' E 023°36'3 6.9
2017-Oct-12 21:30N 37°49' E 023°40'4 7.4
2017-Oct-12 21:00N 37°46' E 023°42'4 7.4
2017-Oct-12 20:30N 37°43' E 023°44'3 6.7
2017-Oct-12 20:00N 37°40' E 023°48'8 7.3
2017-Oct-12 18:51N 37°38' E 023°58'5 7.3
2017-Oct-12 18:09N 37°38' E 024°04'2 7.3
2017-Oct-12 17:50N 37°38' E 024°07'9 8.0
2017-Oct-12 16:45N 37°44' E 024°15'  
2017-Oct-09 09:50N 40°45' E 029°30'4 9.5
2017-Oct-09 09:27N 40°44' E 029°26'4 8.7
2017-Oct-09 09:00N 40°44' E 029°21'3 7.1
2017-Oct-09 08:30N 40°45' E 029°16'4 8.8
2017-Oct-09 08:00N 40°47' E 029°11'4 8.4
2017-Oct-09 07:29N 40°49' E 029°06'4 8.2
2017-Oct-09 06:58N 40°51' E 029°01'8 7.2
2017-Oct-09 05:50N 40°59' E 028°59'  
Track history (hours):
 
Tides and Currents Weather Stations Pressure Air Temp Water Temp Dewpoint Dewpoint Depression Visibility Wind Speed Wind Dir Waves Ship Positions

Fadime K

Last reported at 2017-Oct-17 03:16 UTC. Time now 2017-Oct-17 11:51 UTC.
Position N 45°06' E 029°52'.

Length 72 m; draft 3.2 m.

Type: Cargo ship. MMSI: 271002318.

Date/timePositionNaut miles runAvg speedWind from/ knotsBaromVisibWave heightAir tempDewpointWater temp
2017-Oct-17 03:16N 45°06' E 029°52'1 4.6
2017-Oct-17 03:00N 45°05' E 029°53'54 8.3
2017-Oct-16 20:35N 44°14' E 029°31'110.0
2017-Oct-16 20:30N 44°13' E 029°30'1210.3
2017-Oct-16 19:20N 44°03' E 029°21'3 9.9
2017-Oct-16 19:00N 44°01' E 029°18'5 9.8
2017-Oct-16 18:30N 43°57' E 029°14'510.2
2017-Oct-16 18:00N 43°53' E 029°10'510.7
2017-Oct-16 17:30N 43°48' E 029°06'510.3
2017-Oct-16 17:00N 43°44' E 029°01'510.3
2017-Oct-16 16:30N 43°40' E 028°57'510.1
2017-Oct-16 16:00N 43°36' E 028°53'157 8.3
2017-Oct-15 21:10N 40°59' E 028°60'3 9.3
2017-Oct-15 20:52N 40°56' E 028°58'313 6.4
2017-Oct-13 19:57N 37°40' E 023°42'4 9.7
2017-Oct-13 19:30N 37°44' E 023°40'5 9.5
2017-Oct-13 19:00N 37°48' E 023°36'5 9.6
2017-Oct-13 18:30N 37°49' E 023°30'5 9.5
2017-Oct-13 18:00N 37°51' E 023°24'5 9.3
2017-Oct-13 17:30N 37°51' E 023°18'5 9.4
2017-Oct-13 17:00N 37°52' E 023°13'5 9.6
2017-Oct-13 16:30N 37°53' E 023°07'3 6.5
2017-Oct-13 16:00N 37°55' E 023°03'0 0.2
2017-Oct-13 15:30N 37°55' E 023°03'0 0.0
2017-Oct-13 15:00N 37°55' E 023°03'0 0.0
2017-Oct-13 14:30N 37°55' E 023°03'0 0.0
2017-Oct-13 14:00N 37°55' E 023°03'0 0.0
2017-Oct-13 13:30N 37°55' E 023°03'0 0.0
2017-Oct-13 13:00N 37°55' E 023°03'0 0.0
2017-Oct-13 12:30N 37°55' E 023°03'0 0.0
2017-Oct-13 12:00N 37°55' E 023°03'0 0.0
2017-Oct-13 11:30N 37°55' E 023°03'0 0.0
2017-Oct-13 11:00N 37°55' E 023°03'0 0.0
2017-Oct-13 10:30N 37°55' E 023°03'0 0.0
2017-Oct-13 10:00N 37°55' E 023°03'0 0.0
2017-Oct-13 09:30N 37°55' E 023°03'0 0.0
2017-Oct-13 09:00N 37°55' E 023°03'0 0.0
2017-Oct-13 08:30N 37°55' E 023°03'0 0.0
2017-Oct-13 08:00N 37°55' E 023°03'0 0.0
2017-Oct-13 07:30N 37°55' E 023°03'0 0.0
2017-Oct-13 07:00N 37°55' E 023°03'0 0.0
2017-Oct-13 06:30N 37°55' E 023°03'0 0.0
2017-Oct-13 06:00N 37°55' E 023°03'0 0.0
2017-Oct-13 05:30N 37°55' E 023°03'0 0.0
2017-Oct-13 05:00N 37°55' E 023°03'0 0.0
2017-Oct-13 04:30N 37°55' E 023°03'0 0.0
2017-Oct-13 04:00N 37°55' E 023°03'0 0.3
2017-Oct-13 03:30N 37°55' E 023°03'1 1.4
2017-Oct-13 03:00N 37°55' E 023°02'1 1.1
2017-Oct-13 02:30N 37°54' E 023°03'2 5.0
2017-Oct-13 02:00N 37°53' E 023°06'3 5.5
2017-Oct-13 01:30N 37°53' E 023°09'3 5.5
2017-Oct-13 01:00N 37°53' E 023°13'3 5.6
2017-Oct-13 00:30N 37°53' E 023°16'3 6.1
2017-Oct-13 00:00N 37°52' E 023°20'3 6.5
2017-Oct-12 23:30N 37°51' E 023°24'3 6.5
2017-Oct-12 23:00N 37°50' E 023°28'3 6.0
2017-Oct-12 22:30N 37°50' E 023°32'3 6.6
2017-Oct-12 22:00N 37°50' E 023°36'3 6.9
2017-Oct-12 21:30N 37°49' E 023°40'4 7.4
2017-Oct-12 21:00N 37°46' E 023°42'4 7.4
2017-Oct-12 20:30N 37°43' E 023°44'3 6.7
2017-Oct-12 20:00N 37°40' E 023°48'8 7.3
2017-Oct-12 18:51N 37°38' E 023°58'5 7.3
2017-Oct-12 18:09N 37°38' E 024°04'2 7.3
2017-Oct-12 17:50N 37°38' E 024°07'9 8.0
2017-Oct-12 16:45N 37°44' E 024°15'  
2017-Oct-09 09:50N 40°45' E 029°30'4 9.5
2017-Oct-09 09:27N 40°44' E 029°26'4 8.7
2017-Oct-09 09:00N 40°44' E 029°21'3 7.1
2017-Oct-09 08:30N 40°45' E 029°16'4 8.8
2017-Oct-09 08:00N 40°47' E 029°11'4 8.4
2017-Oct-09 07:29N 40°49' E 029°06'4 8.2
2017-Oct-09 06:58N 40°51' E 029°01'8 7.2
2017-Oct-09 05:50N 40°59' E 028°59'  

Dump ship's entire track history